RRR4137 LCRA-EGVN
Flight info
| Callsign | RRR4137 |
|---|---|
| Flight time | N/A |
| Altitude | 32000 |
| Route | WEST2 ANANE DCT TOSKA UM978 VAXOS DCT GUDIS DCT LINGI DCT NEVIK DCT ALIXA DCT OLLEK DCT SENTI DCT MEGAN DCT TUNEX DCT SAKET DCT SALMA DCT NOLVI DCT SURJU DCT PADKO DCT MRM DCT MTL DCT ETREK DCT MADOT DCT MOPEM DCT CACHI DCT AVLON DCT OKRIX DCT BRY DCT CLM DCT KOPOR DCT KESAX DCT KUNAV T421 ICTAM L179 SAWPE Q63 ASHUM ASHUM |
| Aircraft | A400/H-SGRWY/L |
Departure
| Time | N/A |
|---|---|
| Airport | RAF Akrotiri (LCRA) |
Arrival
| Time | 2026-04-20 21:47 |
|---|---|
| Airport | RAF Brize Norton (EGVN) |
| Time | Latitude | Longitude | Altitude | Speed | Heading |
|---|---|---|---|---|---|
| 2026-04-20 21:15 | 50.46507 | 1.13485 | 32245 ft | 349 kts | 315° |
| 2026-04-20 21:15 | 50.48332 | 1.10958 | 32249 ft | 349 kts | 315° |
| 2026-04-20 21:16 | 50.51996 | 1.05939 | 32254 ft | 349 kts | 316° |
| 2026-04-20 21:16 | 50.55773 | 1.01173 | 32250 ft | 350 kts | 317° |
| 2026-04-20 21:17 | 50.59623 | 0.96461 | 32247 ft | 350 kts | 317° |
| 2026-04-20 21:17 | 50.63471 | 0.91728 | 32240 ft | 350 kts | 317° |
| 2026-04-20 21:18 | 50.67288 | 0.86993 | 32262 ft | 351 kts | 317° |
| 2026-04-20 21:18 | 50.71123 | 0.82212 | 32262 ft | 351 kts | 317° |
| 2026-04-20 21:19 | 50.74951 | 0.77427 | 32258 ft | 351 kts | 317° |
| 2026-04-20 21:20 | 50.80686 | 0.70242 | 32264 ft | 351 kts | 317° |
| 2026-04-20 21:20 | 50.84512 | 0.65436 | 32268 ft | 351 kts | 317° |
| 2026-04-20 21:21 | 50.88313 | 0.60651 | 32321 ft | 351 kts | 317° |
| 2026-04-20 21:21 | 50.92135 | 0.55830 | 32344 ft | 351 kts | 317° |
| 2026-04-20 21:22 | 50.95965 | 0.50988 | 32374 ft | 351 kts | 317° |
| 2026-04-20 21:22 | 50.99786 | 0.46146 | 32413 ft | 351 kts | 317° |
| 2026-04-20 21:23 | 51.03610 | 0.41289 | 32442 ft | 352 kts | 317° |
| 2026-04-20 21:23 | 51.07383 | 0.36487 | 32466 ft | 352 kts | 317° |
| 2026-04-20 21:24 | 51.11244 | 0.31563 | 32478 ft | 352 kts | 317° |
| 2026-04-20 21:24 | 51.15066 | 0.26677 | 32469 ft | 352 kts | 316° |
| 2026-04-20 21:25 | 51.18882 | 0.21789 | 32451 ft | 352 kts | 316° |
| 2026-04-20 21:25 | 51.22676 | 0.16919 | 32425 ft | 352 kts | 316° |
| 2026-04-20 21:26 | 51.26488 | 0.12014 | 32389 ft | 352 kts | 316° |
| 2026-04-20 21:26 | 51.30291 | 0.07103 | 32360 ft | 351 kts | 315° |
| 2026-04-20 21:27 | 51.33251 | 0.01117 | 32060 ft | 336 kts | 295° |
| 2026-04-20 21:27 | 51.34102 | -0.02339 | 31341 ft | 334 kts | 289° |
| 2026-04-20 21:27 | 51.34789 | -0.05849 | 30612 ft | 333 kts | 287° |
| 2026-04-20 21:27 | 51.35401 | -0.09436 | 29763 ft | 332 kts | 286° |
| 2026-04-20 21:28 | 51.35975 | -0.13026 | 28867 ft | 334 kts | 286° |
| 2026-04-20 21:28 | 51.36549 | -0.16665 | 28293 ft | 342 kts | 286° |
| 2026-04-20 21:28 | 51.37140 | -0.20371 | 27777 ft | 347 kts | 286° |
| 2026-04-20 21:28 | 51.37750 | -0.24142 | 27212 ft | 351 kts | 286° |
| 2026-04-20 21:29 | 51.38364 | -0.27886 | 26639 ft | 352 kts | 286° |
| 2026-04-20 21:29 | 51.38990 | -0.31674 | 26136 ft | 351 kts | 286° |
| 2026-04-20 21:29 | 51.39616 | -0.35451 | 25720 ft | 350 kts | 287° |
| 2026-04-20 21:29 | 51.40238 | -0.39207 | 25283 ft | 348 kts | 287° |
| 2026-04-20 21:30 | 51.40651 | -0.41701 | 24987 ft | 347 kts | 287° |
| 2026-04-20 21:30 | 51.41268 | -0.45435 | 24552 ft | 346 kts | 287° |
| 2026-04-20 21:30 | 51.42082 | -0.50377 | 23974 ft | 344 kts | 287° |
| 2026-04-20 21:30 | 51.42691 | -0.54083 | 23481 ft | 343 kts | 286° |
| 2026-04-20 21:31 | 51.43099 | -0.56574 | 23181 ft | 342 kts | 286° |
| 2026-04-20 21:31 | 51.43692 | -0.60201 | 22756 ft | 342 kts | 286° |
| 2026-04-20 21:31 | 51.44297 | -0.63907 | 22320 ft | 342 kts | 286° |
| 2026-04-20 21:31 | 51.44899 | -0.67598 | 21882 ft | 341 kts | 286° |
| 2026-04-20 21:32 | 51.45495 | -0.71269 | 21449 ft | 340 kts | 286° |
| 2026-04-20 21:32 | 51.46065 | -0.74802 | 20531 ft | 311 kts | 286° |
| 2026-04-20 21:32 | 51.46591 | -0.78073 | 19030 ft | 299 kts | 286° |
| 2026-04-20 21:32 | 51.47121 | -0.81352 | 16851 ft | 315 kts | 286° |
| 2026-04-20 21:33 | 51.47711 | -0.84965 | 15374 ft | 340 kts | 286° |
| 2026-04-20 21:33 | 51.48298 | -0.88588 | 14753 ft | 332 kts | 285° |
| 2026-04-20 21:33 | 51.48875 | -0.92182 | 13875 ft | 334 kts | 285° |
| 2026-04-20 21:33 | 51.49452 | -0.95798 | 13004 ft | 333 kts | 285° |
| 2026-04-20 21:34 | 51.50015 | -0.99335 | 12249 ft | 329 kts | 285° |
| 2026-04-20 21:34 | 51.50577 | -1.02879 | 11502 ft | 326 kts | 285° |
| 2026-04-20 21:34 | 51.51129 | -1.06361 | 11031 ft | 316 kts | 285° |
| 2026-04-20 21:34 | 51.51655 | -1.09688 | 10802 ft | 300 kts | 285° |
| 2026-04-20 21:35 | 51.52157 | -1.12872 | 10529 ft | 288 kts | 285° |
| 2026-04-20 21:35 | 51.52636 | -1.15965 | 10086 ft | 284 kts | 284° |
| 2026-04-20 21:35 | 51.53060 | -1.19056 | 9573 ft | 282 kts | 283° |
| 2026-04-20 21:35 | 51.53442 | -1.22144 | 9052 ft | 281 kts | 283° |
| 2026-04-20 21:36 | 51.53877 | -1.25170 | 8581 ft | 277 kts | 291° |
| 2026-04-20 21:36 | 51.54736 | -1.27908 | 8298 ft | 273 kts | 307° |
| 2026-04-20 21:36 | 51.55944 | -1.30234 | 8039 ft | 271 kts | 315° |
| 2026-04-20 21:36 | 51.57245 | -1.32394 | 7770 ft | 270 kts | 317° |
| 2026-04-20 21:37 | 51.58573 | -1.34509 | 7528 ft | 269 kts | 318° |
| 2026-04-20 21:37 | 51.59914 | -1.36616 | 7268 ft | 268 kts | 318° |
| 2026-04-20 21:37 | 51.61243 | -1.38697 | 7024 ft | 266 kts | 318° |
| 2026-04-20 21:37 | 51.62574 | -1.40778 | 6775 ft | 265 kts | 319° |
| 2026-04-20 21:38 | 51.63895 | -1.42842 | 6521 ft | 264 kts | 319° |
| 2026-04-20 21:38 | 51.65218 | -1.44909 | 6243 ft | 264 kts | 319° |
| 2026-04-20 21:38 | 51.66539 | -1.46975 | 5983 ft | 265 kts | 319° |
| 2026-04-20 21:38 | 51.67863 | -1.49046 | 5722 ft | 264 kts | 319° |
| 2026-04-20 21:39 | 51.69181 | -1.51110 | 5476 ft | 263 kts | 319° |
| 2026-04-20 21:39 | 51.70474 | -1.53137 | 5340 ft | 263 kts | 319° |
| 2026-04-20 21:39 | 51.71781 | -1.55188 | 5210 ft | 261 kts | 319° |
| 2026-04-20 21:39 | 51.73046 | -1.57179 | 5082 ft | 247 kts | 319° |
| 2026-04-20 21:40 | 51.74214 | -1.59136 | 4966 ft | 239 kts | 311° |
| 2026-04-20 21:40 | 51.74949 | -1.61515 | 4825 ft | 239 kts | 287° |
| 2026-04-20 21:40 | 51.75211 | -1.64166 | 4697 ft | 240 kts | 278° |
| 2026-04-20 21:40 | 51.75355 | -1.66850 | 4527 ft | 240 kts | 277° |
| 2026-04-20 21:41 | 51.75483 | -1.69545 | 4310 ft | 241 kts | 277° |
| 2026-04-20 21:41 | 51.75614 | -1.72235 | 3992 ft | 241 kts | 276° |
| 2026-04-20 21:41 | 51.75734 | -1.74935 | 3685 ft | 241 kts | 276° |
| 2026-04-20 21:41 | 51.75847 | -1.77638 | 3438 ft | 239 kts | 276° |
| 2026-04-20 21:42 | 51.75957 | -1.80298 | 3383 ft | 240 kts | 276° |
| 2026-04-20 21:42 | 51.75848 | -1.82957 | 3277 ft | 238 kts | 251° |
| 2026-04-20 21:42 | 51.74915 | -1.84958 | 3078 ft | 217 kts | 207° |
| 2026-04-20 21:42 | 51.73546 | -1.85417 | 2944 ft | 195 kts | 166° |
| 2026-04-20 21:43 | 51.72367 | -1.84551 | 2636 ft | 184 kts | 131° |
| 2026-04-20 21:43 | 51.71606 | -1.82959 | 2411 ft | 176 kts | 117° |
| 2026-04-20 21:43 | 51.71203 | -1.81193 | 2325 ft | 165 kts | 92° |
| 2026-04-20 21:43 | 51.71219 | -1.79355 | 2325 ft | 162 kts | 81° |
| 2026-04-20 21:44 | 51.71451 | -1.77660 | 2316 ft | 142 kts | 75° |
| 2026-04-20 21:44 | 51.71703 | -1.76224 | 2317 ft | 128 kts | 75° |
| 2026-04-20 21:44 | 51.71952 | -1.74874 | 2133 ft | 123 kts | 74° |
| 2026-04-20 21:44 | 51.72192 | -1.73568 | 2014 ft | 120 kts | 74° |
| 2026-04-20 21:45 | 51.72426 | -1.72278 | 1969 ft | 120 kts | 74° |
| 2026-04-20 21:45 | 51.72662 | -1.70975 | 1807 ft | 121 kts | 73° |
| 2026-04-20 21:45 | 51.72898 | -1.69692 | 1636 ft | 120 kts | 73° |
| 2026-04-20 21:45 | 51.73137 | -1.68399 | 1448 ft | 121 kts | 73° |
| 2026-04-20 21:46 | 51.73377 | -1.67092 | 1243 ft | 122 kts | 73° |
| 2026-04-20 21:46 | 51.73621 | -1.65752 | 987 ft | 125 kts | 73° |
| 2026-04-20 21:46 | 51.73866 | -1.64387 | 789 ft | 128 kts | 72° |
| 2026-04-20 21:46 | 51.74129 | -1.63023 | 569 ft | 126 kts | 72° |
| 2026-04-20 21:47 | 51.74385 | -1.61644 | 461 ft | 130 kts | 72° |
| 2026-04-20 21:47 | 51.74636 | -1.60269 | 300 ft | 126 kts | 71° |
| 2026-04-20 21:47 | 51.74864 | -1.59027 | 275 ft | 94 kts | 73° |
| 2026-04-20 21:47 | 51.74994 | -1.58329 | 274 ft | 46 kts | 74° |
| 2026-04-20 21:48 | 51.75084 | -1.57991 | 278 ft | 15 kts | 86° |
| 2026-04-20 21:48 | 51.75093 | -1.57806 | 275 ft | 20 kts | 77° |
| 2026-04-20 21:48 | 51.75135 | -1.57562 | 274 ft | 25 kts | 73° |
| 2026-04-20 21:48 | 51.75196 | -1.57280 | 273 ft | 28 kts | 71° |
| 2026-04-20 21:49 | 51.75242 | -1.56976 | 271 ft | 29 kts | 80° |
| 2026-04-20 21:49 | 51.75321 | -1.56711 | 272 ft | 22 kts | 11° |
| 2026-04-20 21:49 | 51.75420 | -1.56738 | 273 ft | 13 kts | 346° |
| 2026-04-20 21:49 | 51.75506 | -1.56780 | 273 ft | 13 kts | 341° |
| 2026-04-20 21:50 | 51.75597 | -1.56822 | 273 ft | 14 kts | 344° |
| 2026-04-20 21:50 | 51.75692 | -1.56866 | 273 ft | 14 kts | 344° |
| 2026-04-20 21:50 | 51.75786 | -1.56924 | 273 ft | 14 kts | 330° |
| 2026-04-20 21:50 | 51.75853 | -1.57038 | 273 ft | 12 kts | 286° |
| 2026-04-20 21:51 | 51.75837 | -1.57169 | 273 ft | 12 kts | 282° |
| 2026-04-20 21:51 | 51.75845 | -1.57215 | 275 ft | 0 kts | 287° |
| 2026-04-20 21:53 | 51.75845 | -1.57214 | 275 ft | 0 kts | 287° |